createdAt,value
2022-10-17T00:01:22.052Z,100935.88
2022-10-17T00:04:25.882Z,100932.38
2022-10-17T00:07:31.023Z,100938.09
2022-10-17T00:10:35.978Z,100940.03
2022-10-17T00:13:40.208Z,100934.50
2022-10-17T00:16:44.325Z,100942.16
2022-10-17T00:19:48.427Z,100938.00
2022-10-17T00:22:52.404Z,100949.47
2022-10-17T00:26:00.955Z,100944.19
2022-10-17T00:29:05.058Z,100951.31
2022-10-17T00:32:09.148Z,100944.88
2022-10-17T00:35:13.260Z,100946.91
2022-10-17T00:38:17.181Z,100952.81
2022-10-17T00:41:24.692Z,100957.31
2022-10-17T00:44:31.716Z,100955.91
2022-10-17T00:47:36.751Z,100954.31
2022-10-17T00:50:44.467Z,100958.09
2022-10-17T00:53:49.707Z,100955.13
2022-10-17T00:56:54.380Z,100953.69
2022-10-17T01:00:00.896Z,100951.47
2022-10-17T01:03:05.084Z,100949.28
2022-10-17T01:06:09.310Z,100952.81
2022-10-17T01:09:13.270Z,100949.84
2022-10-17T01:12:32.622Z,100943.09
2022-10-17T01:16:09.100Z,100938.16
2022-10-17T01:19:35.782Z,100954.38
2022-10-17T01:22:47.864Z,100958.16
2022-10-17T01:26:13.161Z,100958.88
2022-10-17T01:29:54.900Z,100946.94
2022-10-17T01:33:08.246Z,100948.09
2022-10-17T01:36:23.177Z,100950.03
2022-10-17T01:39:45.346Z,100939.81
2022-10-17T01:43:09.086Z,100937.84
2022-10-17T01:46:16.239Z,100936.72
2022-10-17T01:49:24.620Z,100941.06
2022-10-17T01:52:37.125Z,100923.78
2022-10-17T01:55:44.567Z,100921.22
2022-10-17T01:58:57.397Z,100925.38
2022-10-17T02:02:02.377Z,100923.78
2022-10-17T02:05:08.059Z,100922.53
2022-10-17T02:08:12.908Z,100919.19
2022-10-17T02:11:19.357Z,100916.00
2022-10-17T02:14:32.325Z,100916.47
2022-10-17T02:17:42.112Z,100927.78
2022-10-17T02:21:11.371Z,100920.13
2022-10-17T02:24:32.262Z,100916.13
2022-10-17T02:27:51.542Z,100920.13
2022-10-17T02:31:02.383Z,100916.66
2022-10-17T02:34:16.478Z,100909.75
2022-10-17T02:37:25.231Z,100915.78
2022-10-17T02:40:31.682Z,100909.16
2022-10-17T02:43:37.641Z,100914.34
2022-10-17T02:46:44.901Z,100902.63
2022-10-17T02:49:54.819Z,100911.50
2022-10-17T02:53:04.566Z,100918.56
2022-10-17T02:56:16.464Z,100919.72
2022-10-17T02:59:22.807Z,100914.94
2022-10-17T03:02:27.176Z,100911.97
2022-10-17T03:05:31.375Z,100914.53
2022-10-17T03:08:35.173Z,100909.28
2022-10-17T03:11:39.226Z,100919.53
2022-10-17T03:14:43.353Z,100916.19
2022-10-17T03:17:47.499Z,100909.66
2022-10-17T03:20:51.731Z,100915.75
2022-10-17T03:23:55.777Z,100923.00
2022-10-17T03:27:00.104Z,100914.88
2022-10-17T03:30:04.342Z,100914.28
2022-10-17T03:33:08.314Z,100929.94
2022-10-17T03:36:17.265Z,100932.50
2022-10-17T03:39:21.281Z,100932.88
2022-10-17T03:42:25.678Z,100926.00
2022-10-17T03:45:29.894Z,100936.56
2022-10-17T03:48:33.996Z,100935.81
2022-10-17T03:51:38.202Z,100936.66
2022-10-17T03:54:42.299Z,100936.06
2022-10-17T03:57:46.320Z,100930.66
2022-10-17T04:00:50.070Z,100939.16
2022-10-17T04:03:56.201Z,100935.31
2022-10-17T04:07:00.194Z,100936.94
2022-10-17T04:10:05.550Z,100934.38
2022-10-17T04:13:09.515Z,100931.56
2022-10-17T04:16:18.187Z,100942.94
2022-10-17T04:19:22.110Z,100951.69
2022-10-17T04:22:25.728Z,100954.69
2022-10-17T04:25:32.274Z,100940.44
2022-10-17T04:31:48.189Z,100948.50
2022-10-17T04:34:52.022Z,100944.72
2022-10-17T04:37:56.180Z,100945.44
2022-10-17T04:41:03.152Z,100946.03
2022-10-17T04:44:07.069Z,100947.72
2022-10-17T04:47:10.710Z,100952.47
2022-10-17T04:50:14.534Z,100947.06
2022-10-17T04:53:18.467Z,100949.63
2022-10-17T04:56:24.012Z,100947.72
2022-10-17T04:59:28.730Z,100948.50
2022-10-17T05:02:32.747Z,100948.31
2022-10-17T05:05:41.013Z,100946.63
2022-10-17T05:08:45.809Z,100960.56
2022-10-17T05:11:50.106Z,100949.72
2022-10-17T05:14:54.324Z,100954.38
2022-10-17T05:17:58.528Z,100962.41
2022-10-17T05:21:03.884Z,100965.66
2022-10-17T05:24:10.587Z,100967.25
2022-10-17T05:27:14.413Z,100969.44
2022-10-17T05:30:18.449Z,100971.59
2022-10-17T05:33:23.571Z,100967.63
2022-10-17T05:36:27.708Z,100979.34
2022-10-17T05:39:31.299Z,100979.34
2022-10-17T05:42:35.158Z,100979.13
2022-10-17T05:45:39.163Z,100977.03
2022-10-17T05:48:43.062Z,100982.59
2022-10-17T05:51:46.931Z,100973.50
2022-10-17T05:54:50.585Z,100984.78
2022-10-17T05:57:54.583Z,100982.59
2022-10-17T06:01:00.487Z,100979.88
2022-10-17T06:04:04.759Z,100973.97
2022-10-17T06:07:08.390Z,100987.16
2022-10-17T06:10:18.587Z,100990.00
2022-10-17T06:13:22.163Z,100987.13
2022-10-17T06:16:26.105Z,100992.66
2022-10-17T06:19:30.323Z,100997.78
2022-10-17T06:22:34.481Z,101005.91
2022-10-17T06:25:38.165Z,101009.69
2022-10-17T06:28:42.420Z,101011.38
2022-10-17T06:31:46.494Z,101030.97
2022-10-17T06:34:50.524Z,101022.88
2022-10-17T06:37:54.294Z,101021.19
2022-10-17T06:41:08.467Z,101028.16
2022-10-17T06:44:13.329Z,101024.91
2022-10-17T06:47:19.937Z,101034.75
2022-10-17T06:50:24.418Z,101026.38
2022-10-17T06:53:33.952Z,101032.91
2022-10-17T06:56:37.956Z,101032.38
2022-10-17T06:59:41.888Z,101037.50
2022-10-17T07:02:45.981Z,101038.72
2022-10-17T07:05:54.128Z,101045.72
2022-10-17T07:08:58.409Z,101051.41
2022-10-17T07:12:02.685Z,101045.06
2022-10-17T07:15:06.973Z,101044.50
2022-10-17T07:18:10.919Z,101045.97
2022-10-17T07:21:14.933Z,101055.69
2022-10-17T07:24:19.311Z,101057.94
2022-10-17T07:27:23.250Z,101061.81
2022-10-17T07:30:27.378Z,101064.63
2022-10-17T07:33:31.479Z,101066.72
2022-10-17T07:36:35.256Z,101070.13
2022-10-17T07:39:40.008Z,101077.88
2022-10-17T07:42:44.002Z,101080.13
2022-10-17T07:45:48.047Z,101082.25
2022-10-17T07:48:51.841Z,101077.81
2022-10-17T07:51:55.807Z,101087.84
2022-10-17T07:55:00.119Z,101079.66
2022-10-17T07:58:04.192Z,101083.81
2022-10-17T08:01:15.512Z,101072.97
2022-10-17T08:04:20.350Z,101073.78
2022-10-17T08:07:29.150Z,101082.28
2022-10-17T08:10:33.534Z,101077.31
2022-10-17T08:13:37.907Z,101073.78
2022-10-17T08:16:42.276Z,101082.47
2022-10-17T08:19:46.201Z,101076.09
2022-10-17T08:22:55.955Z,101084.03
2022-10-17T08:26:04.499Z,101089.19
2022-10-17T08:29:14.129Z,101093.41
2022-10-17T08:32:24.867Z,101084.94
2022-10-17T08:35:29.040Z,101095.63
2022-10-17T08:38:35.527Z,101092.69
2022-10-17T08:42:03.314Z,101100.13
2022-10-17T08:45:25.839Z,101090.75
2022-10-17T08:48:34.174Z,101090.00
2022-10-17T08:51:47.716Z,101077.63
2022-10-17T08:54:51.808Z,101079.59
2022-10-17T08:57:56.064Z,101085.13
2022-10-17T09:01:25.171Z,101083.53
2022-10-17T09:04:58.966Z,101066.91
2022-10-17T09:08:12.124Z,101076.97
2022-10-17T09:11:31.910Z,101091.25
2022-10-17T09:15:07.811Z,101084.16
2022-10-17T09:18:18.694Z,101078.00
2022-10-17T09:21:48.589Z,101063.16
2022-10-17T09:24:59.482Z,101057.81
2022-10-17T09:28:06.445Z,101063.34
2022-10-17T09:31:23.016Z,101059.97
2022-10-17T09:34:29.611Z,101068.84
2022-10-17T09:37:33.843Z,101075.94
2022-10-17T09:40:38.099Z,101080.47
2022-10-17T09:43:42.474Z,101082.44
2022-10-17T09:47:05.310Z,101084.22
2022-10-17T09:50:27.111Z,101085.34
2022-10-17T09:53:34.934Z,101085.06
2022-10-17T09:56:59.732Z,101081.38
2022-10-17T10:00:06.909Z,101082.84
2022-10-17T10:03:17.283Z,101089.88
2022-10-17T10:06:21.814Z,101077.28
2022-10-17T10:09:28.755Z,101086.31
2022-10-17T10:12:35.947Z,101083.75
2022-10-17T10:15:42.542Z,101077.91
2022-10-17T10:18:50.175Z,101079.22
2022-10-17T10:21:57.896Z,101081.00
2022-10-17T10:25:15.610Z,101084.59
2022-10-17T10:28:20.147Z,101081.13
2022-10-17T10:31:33.501Z,101076.84
2022-10-17T10:34:39.188Z,101065.97
2022-10-17T10:37:46.033Z,101061.47
2022-10-17T10:40:56.311Z,101060.63
2022-10-17T10:44:00.458Z,101053.81
2022-10-17T10:47:20.566Z,101047.34
2022-10-17T10:50:38.113Z,101049.78
2022-10-17T10:53:42.950Z,101051.25
2022-10-17T10:56:53.684Z,101046.50
2022-10-17T11:00:08.765Z,101046.94
2022-10-17T11:03:21.493Z,101042.91
2022-10-17T11:06:33.342Z,101047.63
2022-10-17T11:10:11.317Z,101040.47
2022-10-17T11:13:24.281Z,101044.88
2022-10-17T11:16:37.091Z,101048.94
2022-10-17T11:19:49.507Z,101051.06
2022-10-17T11:23:04.550Z,101050.47
2022-10-17T11:26:25.846Z,101049.69
2022-10-17T11:29:32.810Z,101047.03
2022-10-17T11:32:44.349Z,101051.97
2022-10-17T11:35:51.794Z,101044.50
2022-10-17T11:39:01.038Z,101040.94
2022-10-17T11:42:43.589Z,101044.09
2022-10-17T11:45:59.995Z,101038.13
2022-10-17T11:49:17.431Z,101031.94
2022-10-17T11:56:01.045Z,101033.03
2022-10-17T11:59:36.857Z,101024.50
2022-10-17T12:02:53.048Z,101024.81
2022-10-17T12:06:29.577Z,101028.50
2022-10-17T12:09:43.168Z,101021.88
2022-10-17T12:12:48.188Z,101023.44
2022-10-17T12:15:52.284Z,101025.47
2022-10-17T12:19:02.473Z,101016.50
2022-10-17T12:22:12.307Z,101012.28
2022-10-17T12:25:33.155Z,101016.16
2022-10-17T12:28:40.135Z,101001.94
2022-10-17T12:31:44.036Z,101003.84
2022-10-17T12:34:56.647Z,101001.28
2022-10-17T12:38:04.250Z,100999.25
2022-10-17T12:41:08.194Z,101002.06
2022-10-17T12:44:15.534Z,100998.31
2022-10-17T12:47:37.012Z,101003.00
2022-10-17T12:54:53.537Z,100996.88
2022-10-17T12:58:12.376Z,100997.25
2022-10-17T13:01:27.794Z,100989.88
2022-10-17T13:04:32.033Z,100996.88
2022-10-17T13:07:36.758Z,100994.56
2022-10-17T13:10:43.610Z,100998.06
2022-10-17T13:13:50.192Z,101003.72
2022-10-17T13:16:59.835Z,100987.06
2022-10-17T13:20:04.380Z,100985.50
2022-10-17T13:23:23.020Z,100987.97
2022-10-17T13:26:28.736Z,100992.38
2022-10-17T13:29:33.174Z,100982.34
2022-10-17T13:32:39.631Z,100987.97
2022-10-17T13:36:00.808Z,100992.38
2022-10-17T13:39:12.227Z,100992.47
2022-10-17T13:42:27.364Z,100994.88
2022-10-17T13:45:34.356Z,100990.59
2022-10-17T13:48:38.266Z,100993.50
2022-10-17T13:51:50.895Z,100991.16
2022-10-17T13:55:05.673Z,100991.84
2022-10-17T13:58:17.262Z,100994.09
2022-10-17T14:01:22.127Z,100999.53
2022-10-17T14:04:26.242Z,100994.00
2022-10-17T14:11:30.023Z,100999.97
2022-10-17T14:14:51.707Z,100994.56
2022-10-17T14:18:07.724Z,101003.00
2022-10-17T14:21:37.150Z,100993.44
2022-10-17T14:24:44.740Z,100995.03
2022-10-17T14:28:07.346Z,100998.38
2022-10-17T14:31:28.809Z,100992.25
2022-10-17T14:34:37.877Z,101000.91
2022-10-17T14:37:47.780Z,100999.63
2022-10-17T14:41:41.316Z,100998.72
2022-10-17T14:44:38.768Z,100994.84
2022-10-17T14:47:44.155Z,100992.81
2022-10-17T14:51:12.572Z,100999.25
2022-10-17T14:54:24.683Z,101002.19
2022-10-17T14:57:41.327Z,101004.69
2022-10-17T15:00:45.580Z,101007.50
2022-10-17T15:03:49.666Z,101019.31
2022-10-17T15:06:54.949Z,101011.69
2022-10-17T15:09:59.108Z,101018.22
2022-10-17T15:13:26.796Z,101017.53
2022-10-17T15:16:32.368Z,101016.31
2022-10-17T15:19:36.751Z,101019.69
2022-10-17T15:22:40.867Z,101022.81
2022-10-17T15:25:44.512Z,101011.22
2022-10-17T15:28:49.620Z,101008.16
2022-10-17T15:31:53.789Z,101016.78
2022-10-17T15:34:58.105Z,101017.09
2022-10-17T15:38:02.134Z,101010.69
2022-10-17T15:41:06.244Z,101016.94
2022-10-17T15:44:10.356Z,101015.47
2022-10-17T15:47:23.327Z,101007.00
2022-10-17T15:50:30.185Z,101015.06
2022-10-17T15:53:34.263Z,101007.84
2022-10-17T15:56:41.150Z,101022.81
2022-10-17T15:59:46.894Z,101022.78
2022-10-17T16:02:51.278Z,101028.88
2022-10-17T16:05:55.484Z,101026.44
2022-10-17T16:08:59.689Z,101029.13
2022-10-17T16:12:11.196Z,101028.25
2022-10-17T16:15:18.313Z,101028.75
2022-10-17T16:18:22.289Z,101023.06
2022-10-17T16:24:35.568Z,101028.13
2022-10-17T16:27:39.395Z,101030.91
2022-10-17T16:30:44.943Z,101044.22
2022-10-17T16:33:51.561Z,101052.78
2022-10-17T16:36:55.614Z,101059.56
2022-10-17T16:40:00.532Z,101056.09
2022-10-17T16:43:04.205Z,101059.34
2022-10-17T16:46:08.040Z,101058.97
2022-10-17T16:49:12.568Z,101069.50
2022-10-17T16:52:16.782Z,101064.38
2022-10-17T16:55:21.159Z,101068.56
2022-10-17T16:58:27.379Z,101071.97
2022-10-17T17:01:31.577Z,101068.22
2022-10-17T17:04:35.889Z,101068.03
2022-10-17T17:07:40.250Z,101064.28
2022-10-17T17:10:46.269Z,101071.81
2022-10-17T17:13:50.918Z,101069.84
2022-10-17T17:16:54.634Z,101072.66
2022-10-17T17:19:59.059Z,101068.47
2022-10-17T17:23:03.602Z,101084.69
2022-10-17T17:26:10.612Z,101087.69
2022-10-17T17:29:14.727Z,101090.06
2022-10-17T17:32:18.672Z,101097.56
2022-10-17T17:35:22.498Z,101099.59
2022-10-17T17:38:31.428Z,101097.56
2022-10-17T17:41:35.968Z,101085.75
2022-10-17T17:44:40.272Z,101097.56
2022-10-17T17:47:44.758Z,101095.22
2022-10-17T17:50:49.012Z,101096.41
2022-10-17T17:53:53.499Z,101105.53
2022-10-17T17:56:57.507Z,101095.25
2022-10-17T18:00:01.531Z,101098.56
2022-10-17T18:03:05.807Z,101112.63
2022-10-17T18:06:10.098Z,101121.53
2022-10-17T18:09:14.039Z,101112.63
2022-10-17T18:12:18.271Z,101107.44
2022-10-17T18:15:22.672Z,101105.91
2022-10-17T18:18:27.949Z,101103.91
2022-10-17T18:21:32.462Z,101114.19
2022-10-17T18:24:36.264Z,101114.56
2022-10-17T18:27:40.167Z,101118.50
2022-10-17T18:30:44.322Z,101130.75
2022-10-17T18:33:51.059Z,101133.69
2022-10-17T18:36:55.056Z,101132.50
2022-10-17T18:39:59.168Z,101130.75
2022-10-17T18:43:03.431Z,101143.16
2022-10-17T18:46:13.891Z,101144.50
2022-10-17T18:49:20.280Z,101141.56
2022-10-17T18:52:24.758Z,101138.59
2022-10-17T18:55:28.474Z,101143.09
2022-10-17T18:58:32.401Z,101146.88
2022-10-17T19:01:36.364Z,101143.09
2022-10-17T19:04:40.654Z,101152.16
2022-10-17T19:07:45.166Z,101151.53
2022-10-17T19:10:49.126Z,101149.53
2022-10-17T19:13:53.494Z,101149.09
2022-10-17T19:16:57.482Z,101138.63
2022-10-17T19:20:01.457Z,101143.78
2022-10-17T19:23:05.619Z,101148.72
2022-10-17T19:26:12.543Z,101163.50
2022-10-17T19:29:18.224Z,101168.44
2022-10-17T19:32:22.939Z,101168.41
2022-10-17T19:35:26.588Z,101158.88
2022-10-17T19:38:30.508Z,101171.50
2022-10-17T19:41:36.307Z,101168.91
2022-10-17T19:44:40.952Z,101166.75
2022-10-17T19:47:44.955Z,101173.25
2022-10-17T19:50:49.977Z,101174.28
2022-10-17T19:53:55.780Z,101179.00
2022-10-17T19:56:59.840Z,101183.50
2022-10-17T20:00:04.238Z,101187.28
2022-10-17T20:03:07.922Z,101197.88
2022-10-17T20:06:12.331Z,101195.50
2022-10-17T20:09:17.287Z,101191.75
2022-10-17T20:12:21.819Z,101199.00
2022-10-17T20:15:25.880Z,101198.56
2022-10-17T20:18:30.097Z,101202.34
2022-10-17T20:21:37.278Z,101198.19
2022-10-17T20:24:40.966Z,101192.25
2022-10-17T20:27:45.041Z,101199.13
2022-10-17T20:30:49.380Z,101206.22
2022-10-17T20:33:57.957Z,101209.78
2022-10-17T20:37:02.023Z,101203.66
2022-10-17T20:40:34.621Z,101211.53
2022-10-17T20:43:33.241Z,101212.28
2022-10-17T20:46:44.418Z,101210.09
2022-10-17T20:49:52.520Z,101215.78
2022-10-17T20:53:12.339Z,101210.66
2022-10-17T20:56:26.553Z,101221.47
2022-10-17T20:59:30.588Z,101225.78
2022-10-17T21:02:34.789Z,101224.75
2022-10-17T21:05:39.761Z,101224.13
2022-10-17T21:08:44.637Z,101231.22
2022-10-17T21:11:51.420Z,101227.84
2022-10-17T21:14:55.779Z,101240.84
2022-10-17T21:17:59.502Z,101226.81
2022-10-17T21:21:24.629Z,101228.75
2022-10-17T21:24:28.515Z,101223.00
2022-10-17T21:27:32.685Z,101228.13
2022-10-17T21:30:36.702Z,101225.75
2022-10-17T21:33:41.842Z,101227.34
2022-10-17T21:36:45.755Z,101218.69
2022-10-17T21:39:49.541Z,101219.84
2022-10-17T21:42:53.593Z,101226.72
2022-10-17T21:46:01.821Z,101230.88
2022-10-17T21:49:06.509Z,101231.06
2022-10-17T21:52:10.341Z,101237.34
2022-10-17T21:55:14.424Z,101237.53
2022-10-17T21:58:19.954Z,101245.97
2022-10-17T22:01:27.716Z,101246.13
2022-10-17T22:04:32.019Z,101242.94
2022-10-17T22:07:36.125Z,101245.88
2022-10-17T22:10:40.617Z,101236.00
2022-10-17T22:13:44.887Z,101234.72
2022-10-17T22:16:49.790Z,101239.84
2022-10-17T22:19:54.049Z,101239.50
2022-10-17T22:22:58.018Z,101233.44
2022-10-17T22:26:02.521Z,101248.72
2022-10-17T22:29:07.469Z,101261.28
2022-10-17T22:32:11.578Z,101261.16
2022-10-17T22:35:15.634Z,101260.28
2022-10-17T22:38:19.681Z,101254.75
2022-10-17T22:41:23.907Z,101261.97
2022-10-17T22:44:27.971Z,101253.69
2022-10-17T22:47:32.481Z,101265.69
2022-10-17T22:50:41.623Z,101262.19
2022-10-17T22:53:45.906Z,101259.34
2022-10-17T22:56:49.990Z,101260.44
2022-10-17T22:59:53.960Z,101272.50
2022-10-17T23:02:57.599Z,101277.81
2022-10-17T23:06:02.385Z,101271.94
2022-10-17T23:09:06.321Z,101277.31
2022-10-17T23:12:10.544Z,101273.38
2022-10-17T23:15:14.561Z,101270.00
2022-10-17T23:18:19.205Z,101274.31
2022-10-17T23:21:23.902Z,101270.00
2022-10-17T23:24:28.295Z,101265.84
2022-10-17T23:27:34.812Z,101260.72
2022-10-17T23:30:39.490Z,101256.38
2022-10-17T23:33:45.095Z,101265.84
2022-10-17T23:36:49.198Z,101264.41
2022-10-17T23:39:53.274Z,101255.94
2022-10-17T23:42:57.239Z,101270.84
2022-10-17T23:46:02.223Z,101263.66
2022-10-17T23:49:06.793Z,101259.53
2022-10-17T23:52:10.960Z,101262.97
2022-10-17T23:55:15.123Z,101256.41
2022-10-17T23:58:19.400Z,101260.75
